Briefing drone pour Saint-peray

Rechercher une autre localisation

Conditions de vol :


Nous sommes le : Mardi 27 juillet 2021
Il est 12:03 UTC (14:03 LT)

Lever de soleil : 03:54 UTC (05:54 LT)
Coucher de soleil : 19:39 UTC (21:39 LT)

Météo

L'essentiel des conditions de vol

VIGILANCE MÉTÉO FRANCE - Ardèche (07)
Vigilance Jaune : Orages
CARTES DES FRONTS
METAR de LFLU
LFLU 271200Z AUTO 18007KT 150V230 CAVOK 29/18 Q1013

Date d'émission: 27/07/2021
Heure d'émission: 12:00 UTC
Vent: 180° (variable du 150° au 230°) pour 7 KT (13 km/h)
Visibilité horizontale: > 10 km
Plafond : Plafond et visibilité OK (CAVOK)
Température: 29 °C
Point de rosée: 18 °C
Humidité: 52%
Pression (QNH): 1013 hPa
Prévision 24h pour Valence (3 km)
Vent : 247° pour 0 KT (1 km/h)
Temperature Maxi: 25 °C
Temperature Min: 25 °C
Humidité : 58%
Condition : Nuageux



Warning: count(): Parameter must be an array or an object that implements Countable in /homepages/6/d509196549/htdocs/droneoxygene/briefing.php on line 743
WEBCAM POUR SAINT-PERAY

Réglementation

Voler en sécurité

CARTES AERONAUTIQUE 1/500.000
CARTES VAC (LFLU)
SUP AIP




Chargement des AIP...
NOTAM (SAINT-PERAY + Terrain à proximité / FIR )




Chargement des NOTAMS...
CONTACT PREFECTURE 07


Avertissement : Les données mises à disposition sont indicatives. Oxygène Drone ne pourra être tenu responsable de dégâts causés aux biens et aux personnes.